Time;durP1;ratioP1;P1;durP2;ratioP2;P2;SDS_P1;SDS_P2;PMS_P1;PMS_P2;Temp;Humidity;BMP_temperature;BMP_pressure;BME280_temperature;BME280_humidity;BME280_pressure;Samples;Min_cycle;Max_cycle;Signal;HPM_P1;HPM_P2
2021/11/08 01:47:20;;;;;;;14.60;8.95;;;;;;;5.08;80.93;99378.47;2625582;46;20018;-70
2021/11/08 01:49:50;;;;;;;12.88;8.65;;;;;;;5.11;80.99;99375.56;2623225;54;20027;-70
2021/11/08 01:52:19;;;;;;;12.48;8.02;;;;;;;5.11;81.08;99375.56;2618715;54;20564;-70
2021/11/08 01:54:49;;;;;;;16.60;8.45;;;;;;;5.11;80.94;99362.47;2622807;47;20034;-71
2021/11/08 01:57:18;;;;;;;13.88;9.23;;;;;;;5.11;81.34;99373.75;2625488;54;20042;-70
2021/11/08 01:59:48;;;;;;;17.23;9.18;;;;;;;5.12;80.54;99375.41;2625971;54;20035;-70
2021/11/08 02:02:21;;;;;;;16.67;8.40;;;;;;;5.12;80.47;99383.28;2624605;54;20031;-70
2021/11/08 02:04:50;;;;;;;13.00;8.65;;;;;;;5.16;80.36;99383.81;2625130;39;20449;-70
2021/11/08 02:07:20;;;;;;;14.23;9.27;;;;;;;5.14;80.34;99394.44;2625864;54;20031;-71
2021/11/08 02:09:50;;;;;;;12.35;8.50;;;;;;;5.07;80.24;99382.88;2626309;54;20034;-68
2021/11/08 02:12:20;;;;;;;11.93;8.02;;;;;;;5.10;79.80;99385.22;2626659;39;20438;-69
2021/11/08 02:14:52;;;;;;;13.63;8.27;;;;;;;5.09;79.88;99386.16;2626349;54;20034;-68
2021/11/08 02:17:25;;;;;;;17.38;8.43;;;;;;;5.10;79.94;99387.00;2625940;47;20046;-68
2021/11/08 02:20:00;;;;;;;15.70;8.48;;;;;;;5.04;79.50;99392.81;2625781;54;20023;-69
2021/11/08 02:22:30;;;;;;;13.32;8.05;;;;;;;4.94;79.29;99387.63;2625441;47;20094;-68
2021/11/08 02:24:59;;;;;;;14.50;8.93;;;;;;;4.87;79.76;99394.38;2626169;54;20042;-69
2021/11/08 02:27:29;;;;;;;18.38;8.65;;;;;;;4.88;79.38;99391.63;2626115;47;20033;-69
2021/11/08 02:29:58;;;;;;;16.45;7.95;;;;;;;4.86;79.70;99393.56;2626584;54;20041;-69
2021/11/08 02:32:29;;;;;;;13.35;7.82;;;;;;;4.82;79.71;99397.44;2626042;54;20038;-69
2021/11/08 02:35:01;;;;;;;14.18;8.43;;;;;;;4.82;79.75;99394.00;2626421;54;20034;-69
2021/11/08 02:37:32;;;;;;;14.63;7.95;;;;;;;4.80;79.25;99388.06;2626134;54;20545;-69
2021/11/08 02:40:02;;;;;;;10.60;7.78;;;;;;;4.77;79.44;99390.94;2626182;54;20019;-69
2021/11/08 02:42:32;;;;;;;11.70;7.55;;;;;;;4.77;79.37;99388.31;2625449;47;20057;-69
2021/11/08 02:45:03;;;;;;;14.30;8.65;;;;;;;4.74;79.30;99393.88;2626476;54;20054;-68
2021/11/08 02:47:33;;;;;;;14.38;8.27;;;;;;;4.67;79.73;99398.84;2625192;54;20026;-71
2021/11/08 02:50:06;;;;;;;11.15;7.90;;;;;;;4.63;79.59;99407.94;2624187;47;20038;-69
2021/11/08 02:52:36;;;;;;;12.00;7.63;;;;;;;4.60;79.75;99400.34;2625394;54;20022;-69
2021/11/08 02:55:06;;;;;;;12.20;8.32;;;;;;;4.59;79.24;99402.16;2626026;54;20030;-69
2021/11/08 02:57:37;;;;;;;12.80;7.32;;;;;;;4.56;79.37;99402.41;2626347;54;20533;-69
2021/11/08 03:00:10;;;;;;;11.30;8.05;;;;;;;4.48;78.98;99397.88;2627125;54;20061;-69
2021/11/08 03:02:41;;;;;;;11.97;7.63;;;;;;;4.34;79.10;99400.09;2628036;39;20465;-69
2021/11/08 03:05:15;;;;;;;13.23;8.75;;;;;;;4.16;79.42;99411.25;2626104;54;20022;-69
2021/11/08 03:07:46;;;;;;;10.43;8.45;;;;;;;3.90;78.69;99413.56;2626376;54;20554;-68
2021/11/08 03:10:21;;;;;;;15.10;8.75;;;;;;;3.70;79.43;99410.06;2626537;51;20031;-69
2021/11/08 03:12:52;;;;;;;13.07;9.15;;;;;;;3.70;79.79;99412.69;2626945;54;20042;-69
2021/11/08 03:15:34;;;;;;;14.10;8.77;;;;;;;3.64;79.74;99415.84;2626583;54;20018;-69
2021/11/08 03:18:07;;;;;;;14.35;8.27;;;;;;;3.58;79.76;99410.31;2627197;54;20510;-69
2021/11/08 03:20:40;;;;;;;19.33;9.10;;;;;;;3.55;80.24;99405.34;2626133;54;20680;-69
2021/11/08 03:23:09;;;;;;;11.80;7.60;;;;;;;3.51;79.87;99409.19;2627385;54;20290;-68
2021/11/08 03:25:46;;;;;;;15.57;8.63;;;;;;;3.52;79.98;99406.44;2627083;54;20053;-69
2021/11/08 03:28:18;;;;;;;11.13;6.97;;;;;;;3.48;80.30;99407.69;2627308;54;20045;-69
2021/11/08 03:30:50;;;;;;;16.48;7.07;;;;;;;3.51;80.49;99403.94;2626861;54;20057;-69
2021/11/08 03:33:22;;;;;;;11.07;7.68;;;;;;;3.52;80.41;99409.06;2626214;54;20038;-68
2021/11/08 03:35:57;;;;;;;17.52;8.65;;;;;;;3.50;80.31;99410.16;2623444;54;20030;-70
2021/11/08 03:38:27;;;;;;;17.48;8.73;;;;;;;3.46;80.14;99415.63;2623646;54;20027;-69
2021/11/08 03:40:56;;;;;;;13.00;8.48;;;;;;;3.51;80.82;99417.03;2624038;47;20050;-68
2021/11/08 03:43:26;;;;;;;14.55;8.82;;;;;;;3.52;80.55;99422.13;2626365;47;20061;-69
2021/11/08 03:45:56;;;;;;;15.30;8.52;;;;;;;3.58;81.03;99426.81;2626671;54;20094;-69
2021/11/08 03:48:25;;;;;;;20.83;10.13;;;;;;;3.68;81.36;99422.47;2626479;54;20025;-68
2021/11/08 03:50:58;;;;;;;14.35;8.80;;;;;;;3.80;81.39;99425.81;2626479;54;20031;-68
2021/11/08 03:53:28;;;;;;;17.95;9.80;;;;;;;3.87;80.99;99420.84;2627399;54;20034;-68
2021/11/08 03:56:02;;;;;;;19.63;9.80;;;;;;;3.92;80.95;99429.97;2624557;54;20039;-68
2021/11/08 03:58:32;;;;;;;13.98;8.65;;;;;;;3.94;80.90;99429.81;2626830;54;20038;-68
2021/11/08 04:01:03;;;;;;;17.92;9.05;;;;;;;3.97;80.40;99434.78;2627728;39;20688;-69
2021/11/08 04:03:33;;;;;;;24.55;8.80;;;;;;;3.91;80.12;99430.06;2626323;54;20039;-69
2021/11/08 04:06:06;;;;;;;15.90;8.82;;;;;;;3.92;80.57;99437.81;2626770;54;20026;-68
2021/11/08 04:08:36;;;;;;;22.13;9.20;;;;;;;3.95;79.96;99436.69;2626800;54;20029;-69
2021/11/08 04:11:06;;;;;;;12.77;8.23;;;;;;;3.91;79.98;99446.59;2626200;47;20037;-69
2021/11/08 04:13:40;;;;;;;15.88;8.88;;;;;;;3.95;80.60;99447.16;2626995;54;20045;-69
2021/11/08 04:16:13;;;;;;;15.95;8.15;;;;;;;4.00;80.16;99447.59;2626867;54;20019;-69
2021/11/08 04:18:47;;;;;;;19.20;9.13;;;;;;;3.98;80.18;99457.34;2626894;54;20022;-69
2021/11/08 04:21:21;;;;;;;15.52;10.00;;;;;;;3.91;79.89;99459.66;2626831;54;20817;-68
2021/11/08 04:23:50;;;;;;;18.48;9.18;;;;;;;3.89;80.47;99456.38;2626789;54;20030;-69
2021/11/08 04:26:23;;;;;;;25.13;11.90;;;;;;;4.00;80.85;99462.44;2626430;39;20429;-69
2021/11/08 04:28:56;;;;;;;24.70;10.10;;;;;;;4.08;80.33;99459.97;2625700;54;20584;-70
2021/11/08 04:31:27;;;;;;;20.67;9.05;;;;;;;4.08;80.71;99459.97;2625322;54;20027;-68
2021/11/08 04:34:02;;;;;;;19.02;9.00;;;;;;;4.18;80.95;99466.06;2626255;54;20031;-68
2021/11/08 04:37:06;;;;;;;15.18;9.65;;;;;;;4.24;80.67;99462.91;2625550;54;20573;-70
2021/11/08 04:39:44;;;;;;;21.40;9.75;;;;;;;4.27;80.20;99465.25;2625145;54;20038;-68
2021/11/08 04:42:18;;;;;;;19.35;10.38;;;;;;;4.17;79.51;99465.25;2624654;54;20038;-70
2021/11/08 04:50:27;;;;;;;18.08;10.38;;;;;;;4.08;80.86;99463.44;2624943;54;20030;-67
2021/11/08 04:53:12;;;;;;;21.90;9.80;;;;;;;4.11;81.33;99472.81;2625854;54;20030;-68
2021/11/08 04:56:06;;;;;;;;;;;;;;;4.12;80.73;99470.06;2626265;54;20026;-68
2021/11/08 05:23:05;;;;;;;34.25;13.20;;;;;;;4.01;80.43;99485.03;2621080;54;20073;-69
2021/11/08 05:28:31;;;;;;;;;;;;;;;3.75;81.13;99485.50;2620135;54;20042;-70
2021/11/08 05:31:01;;;;;;;31.52;12.43;;;;;;;3.75;81.38;99497.75;2620910;54;19953;-69
2021/11/08 05:33:31;;;;;;;46.20;14.10;;;;;;;3.65;81.77;99485.47;2621200;39;20124;-69
2021/11/08 05:36:01;;;;;;;47.88;13.13;;;;;;;3.63;82.35;99489.16;2620967;54;20022;-68
2021/11/08 05:38:30;;;;;;;44.38;12.95;;;;;;;3.62;82.31;99488.34;2621061;54;20042;-69
2021/11/08 05:41:02;;;;;;;45.92;13.30;;;;;;;3.63;82.52;99495.25;2620888;54;20031;-69
2021/11/08 05:43:32;;;;;;;56.15;14.65;;;;;;;3.64;82.84;99496.91;2620616;39;20433;-69
2021/11/08 05:46:03;;;;;;;62.05;15.52;;;;;;;3.64;82.96;99496.06;2620582;39;20407;-68
2021/11/08 05:48:32;;;;;;;50.22;13.15;;;;;;;3.57;82.65;99506.22;2621702;39;20421;-69
2021/11/08 05:51:02;;;;;;;58.20;12.32;;;;;;;3.56;82.82;99501.97;2624893;54;20031;-69
2021/11/08 05:53:32;;;;;;;40.40;11.05;;;;;;;3.52;83.04;99492.72;2624582;54;20038;-70
2021/11/08 05:56:13;;;;;;;26.60;9.68;;;;;;;3.61;83.61;99497.16;2624618;54;20129;-69
2021/11/08 05:59:01;;;;;;;16.80;8.10;;;;;;;3.60;83.30;99495.50;2625920;39;20406;-70
2021/11/08 06:50:33;;;;;;;19.35;10.10;;;;;;;4.59;82.22;99533.09;2624893;54;20030;-69
2021/11/08 06:53:06;;;;;;;18.25;9.27;;;;;;;4.62;81.70;99532.00;2624108;54;20030;-69
2021/11/08 06:55:36;;;;;;;16.90;7.90;;;;;;;4.72;81.94;99535.44;2623920;54;20038;-68
2021/11/08 06:58:11;;;;;;;19.55;9.25;;;;;;;4.74;81.30;99546.59;2623446;54;20034;-69
2021/11/08 07:00:45;;;;;;;15.48;8.18;;;;;;;4.76;81.45;99546.47;2623632;54;20042;-69
2021/11/08 07:03:14;;;;;;;17.87;8.73;;;;;;;4.78;81.02;99545.38;2623802;39;20407;-70
2021/11/08 07:05:45;;;;;;;18.88;9.35;;;;;;;4.80;81.44;99546.03;2623780;46;20058;-70
2021/11/08 07:08:15;;;;;;;17.50;8.27;;;;;;;4.85;80.99;99546.44;2623564;54;20038;-70
2021/11/08 07:10:47;;;;;;;15.50;7.90;;;;;;;4.84;81.16;99555.28;2624074;54;20039;-70
2021/11/08 07:13:17;;;;;;;17.33;8.90;;;;;;;4.84;81.17;99552.66;2624001;54;20030;-69
2021/11/08 07:15:49;;;;;;;21.25;9.65;;;;;;;4.84;81.19;99565.75;2622546;54;20055;-70
2021/11/08 07:18:19;;;;;;;16.77;9.23;;;;;;;4.91;80.97;99574.75;2622647;54;20026;-70
2021/11/08 07:20:49;;;;;;;19.63;10.45;;;;;;;4.93;81.07;99574.59;2623907;54;20038;-70
2021/11/08 07:23:19;;;;;;;20.23;10.00;;;;;;;4.95;80.91;99575.28;2624464;54;20038;-70
2021/11/08 07:25:48;;;;;;;23.52;10.02;;;;;;;4.96;80.65;99580.38;2622402;54;20042;-70
2021/11/08 07:28:18;;;;;;;22.30;9.48;;;;;;;5.02;81.11;99583.41;2619181;54;20031;-70
2021/11/08 07:30:50;;;;;;;16.73;10.18;;;;;;;5.13;81.03;99583.28;2620413;54;20074;-70
2021/11/08 07:33:20;;;;;;;21.05;8.48;;;;;;;5.08;80.18;99583.69;2620593;54;20030;-70
2021/11/08 07:35:50;;;;;;;21.30;9.40;;;;;;;5.02;79.98;99579.03;2620473;54;20026;-70
2021/11/08 07:38:19;;;;;;;17.35;9.48;;;;;;;5.02;80.05;99586.88;2622814;54;20039;-70
2021/11/08 07:40:49;;;;;;;19.35;9.63;;;;;;;5.07;80.55;99589.09;2624520;39;20684;-70
2021/11/08 07:43:18;;;;;;;17.52;10.05;;;;;;;5.04;79.79;99589.34;2623767;54;20033;-70
2021/11/08 07:45:51;;;;;;;14.63;10.07;;;;;;;5.12;80.35;99598.19;2623827;47;20258;-69
2021/11/08 07:48:20;;;;;;;16.30;9.13;;;;;;;5.14;80.01;99598.88;2622836;54;20065;-69
2021/11/08 07:50:51;;;;;;;15.63;8.35;;;;;;;5.15;79.81;99604.97;2622853;54;20030;-69
2021/11/08 07:53:21;;;;;;;15.30;8.80;;;;;;;5.10;79.48;99607.13;2622909;54;20038;-69
2021/11/08 07:55:51;;;;;;;15.52;8.82;;;;;;;5.12;79.45;99613.09;2621628;51;20026;-70
2021/11/08 07:58:20;;;;;;;17.95;10.52;;;;;;;5.15;78.93;99610.19;2619531;54;20037;-70
2021/11/08 08:00:53;;;;;;;13.90;8.45;;;;;;;5.17;78.71;99606.44;2618786;54;20077;-70
2021/11/08 08:03:25;;;;;;;15.38;8.73;;;;;;;5.26;79.07;99612.66;2618721;54;20031;-70
2021/11/08 08:05:57;;;;;;;16.17;8.77;;;;;;;5.25;79.07;99618.88;2618956;39;20449;-70
2021/11/08 08:08:27;;;;;;;12.02;7.72;;;;;;;5.25;78.67;99615.44;2618421;54;20031;-70
2021/11/08 08:10:57;;;;;;;24.48;7.88;;;;;;;5.26;78.69;99620.53;2618784;54;20030;-70
2021/11/08 08:13:29;;;;;;;17.15;7.35;;;;;;;5.27;78.49;99618.75;2618704;54;20034;-69
2021/11/08 08:16:03;;;;;;;14.93;8.70;;;;;;;5.34;78.12;99623.28;2618213;54;20035;-70
2021/11/08 08:18:34;;;;;;;20.85;7.85;;;;;;;5.39;78.33;99628.13;2618632;54;20077;-70
2021/11/08 08:21:04;;;;;;;19.17;8.20;;;;;;;5.43;78.51;99627.72;2618000;47;20065;-70
2021/11/08 08:23:54;;;;;;;14.48;8.20;;;;;;;5.39;78.13;99615.84;2620133;54;20129;-69
2021/11/08 08:26:25;;;;;;;13.70;7.57;;;;;;;5.43;78.78;99621.63;2620913;54;20035;-69
2021/11/08 08:28:55;;;;;;;15.63;8.02;;;;;;;5.44;78.20;99623.28;2621170;54;20030;-68
2021/11/08 08:31:27;;;;;;;17.05;8.02;;;;;;;5.46;77.52;99621.34;2620360;47;20031;-70
2021/11/08 08:33:57;;;;;;;25.92;10.00;;;;;;;5.37;77.16;99616.94;2620607;54;20031;-69
2021/11/08 08:36:27;;;;;;;19.30;8.90;;;;;;;5.38;77.52;99621.22;2620742;54;20042;-69
2021/11/08 08:38:57;;;;;;;17.55;9.55;;;;;;;5.43;78.04;99619.84;2622231;54;20034;-69
2021/11/08 08:41:27;;;;;;;22.25;8.90;;;;;;;5.52;77.86;99622.59;2624534;54;20148;-70
2021/11/08 08:43:57;;;;;;;20.73;8.98;;;;;;;5.52;77.85;99622.59;2621151;39;20418;-70
2021/11/08 08:46:29;;;;;;;18.98;9.10;;;;;;;5.64;77.93;99614.44;2621128;54;20030;-68
2021/11/08 08:48:59;;;;;;;21.25;10.95;;;;;;;5.67;77.38;99618.53;2620558;54;20038;-70
2021/11/08 08:51:29;;;;;;;17.30;8.40;;;;;;;5.58;77.17;99628.09;2620952;54;20061;-70
2021/11/08 08:54:03;;;;;;;13.73;7.32;;;;;;;5.66;77.39;99622.13;2618918;47;20596;-69
2021/11/08 08:56:33;;;;;;;14.48;7.30;;;;;;;5.75;77.01;99609.97;2618275;54;20038;-69
2021/11/08 08:59:03;;;;;;;14.70;8.20;;;;;;;5.83;77.06;99615.34;2617774;47;20577;-69
2021/11/08 09:01:36;;;;;;;30.63;8.55;;;;;;;5.94;76.55;99616.03;2618007;54;20577;-71
2021/11/08 09:04:06;;;;;;;13.52;8.10;;;;;;;6.10;76.62;99611.97;2618296;54;20530;-71
2021/11/08 09:06:36;;;;;;;15.52;8.32;;;;;;;6.17;76.12;99602.56;2618524;54;20038;-70
2021/11/08 09:09:06;;;;;;;13.70;8.57;;;;;;;6.14;75.72;99601.03;2618008;54;20034;-70
2021/11/08 09:11:36;;;;;;;31.52;20.42;;;;;;;6.23;75.95;99604.59;2618802;54;20542;-70
2021/11/08 09:14:05;;;;;;;19.20;10.00;;;;;;;6.25;76.02;99600.03;2621407;54;20034;-71
2021/11/08 09:16:38;;;;;;;16.20;10.50;;;;;;;6.34;75.65;99609.66;2621319;54;20537;-71
2021/11/08 09:19:08;;;;;;;14.35;9.38;;;;;;;6.37;75.25;99604.13;2618288;54;20034;-71
2021/11/08 09:21:38;;;;;;;16.08;9.10;;;;;;;6.36;75.27;99609.50;2618541;39;20753;-71
2021/11/08 09:24:08;;;;;;;19.10;10.85;;;;;;;6.41;74.93;99599.41;2618210;54;20038;-71
2021/11/08 09:26:38;;;;;;;15.18;9.80;;;;;;;6.45;74.65;99606.84;2617769;47;20030;-70
2021/11/08 09:29:08;;;;;;;14.02;9.07;;;;;;;6.55;74.76;99608.59;2620030;39;20442;-70
2021/11/08 09:31:41;;;;;;;14.68;10.07;;;;;;;6.75;75.25;99602.25;2618427;54;20530;-70
2021/11/08 09:34:11;;;;;;;19.58;10.43;;;;;;;6.88;75.09;99602.69;2619113;39;20506;-71
2021/11/08 09:36:42;;;;;;;20.45;11.95;;;;;;;7.02;74.68;99609.25;2618019;47;20034;-70
2021/11/08 09:39:20;;;;;;;19.65;11.90;;;;;;;7.09;74.26;99612.09;2618585;54;20027;-70
2021/11/08 09:41:51;;;;;;;19.77;10.63;;;;;;;7.00;74.35;99610.38;2618314;54;20045;-70
2021/11/08 09:44:20;;;;;;;17.08;10.52;;;;;;;7.00;74.51;99613.81;2619593;54;20058;-71
2021/11/08 09:46:56;;;;;;;17.95;10.88;;;;;;;6.97;74.25;99615.91;2620251;54;20818;-70
2021/11/08 09:49:27;;;;;;;14.82;9.90;;;;;;;6.93;74.09;99616.19;2617766;54;20033;-71
2021/11/08 09:51:58;;;;;;;20.73;11.30;;;;;;;7.03;73.88;99613.53;2619125;54;20038;-70
2021/11/08 09:54:30;;;;;;;19.23;11.93;;;;;;;7.08;73.76;99618.31;2620230;54;20085;-70
2021/11/08 09:57:03;;;;;;;20.15;10.90;;;;;;;7.10;73.70;99619.00;2620601;54;20034;-71
2021/11/08 09:59:34;;;;;;;26.63;13.35;;;;;;;7.17;73.97;99617.41;2623161;54;20026;-71
2021/11/08 10:02:13;;;;;;;31.60;20.33;;;;;;;7.19;73.85;99623.38;2621408;54;20022;-70
2021/11/08 10:04:44;;;;;;;30.10;17.92;;;;;;;7.17;73.72;99612.97;2619764;54;20046;-72
2021/11/08 10:07:14;;;;;;;19.35;11.80;;;;;;;7.20;73.41;99614.50;2619941;47;20533;-70
2021/11/08 10:09:44;;;;;;;18.10;10.10;;;;;;;7.24;73.88;99609.75;2618852;54;20038;-70
2021/11/08 10:12:17;;;;;;;21.48;11.35;;;;;;;7.27;73.68;99606.84;2618582;54;20058;-70
2021/11/08 10:14:47;;;;;;;14.18;9.65;;;;;;;7.28;73.61;99614.56;2618821;54;20046;-71
2021/11/08 10:17:20;;;;;;;16.15;9.65;;;;;;;7.28;73.80;99614.56;2618574;54;20057;-70
2021/11/08 10:19:50;;;;;;;21.17;12.25;;;;;;;7.20;73.57;99614.50;2620773;54;20030;-70
2021/11/08 10:22:20;;;;;;;20.38;11.70;;;;;;;7.21;74.00;99616.13;2621173;54;20039;-70
2021/11/08 10:24:49;;;;;;;18.00;10.75;;;;;;;7.27;73.59;99617.34;2622056;51;20030;-71
2021/11/08 10:27:20;;;;;;;18.55;10.68;;;;;;;7.26;73.85;99619.13;2619007;54;20810;-70
2021/11/08 10:29:50;;;;;;;19.70;12.48;;;;;;;7.21;73.29;99624.03;2618561;54;20573;-69
2021/11/08 10:32:24;;;;;;;20.80;12.65;;;;;;;7.26;73.60;99621.75;2618461;54;20572;-70
2021/11/08 10:34:58;;;;;;;24.15;14.23;;;;;;;7.38;73.78;99632.88;2617912;39;20558;-70
2021/11/08 10:37:31;;;;;;;26.92;14.95;;;;;;;7.49;73.54;99614.22;2617707;54;20035;-70
2021/11/08 10:40:02;;;;;;;22.13;11.93;;;;;;;7.56;73.44;99622.34;2618685;54;20034;-70
2021/11/08 10:42:46;;;;;;;21.90;11.57;;;;;;;7.60;73.21;99621.06;2618554;54;20030;-71
2021/11/08 10:45:23;;;;;;;26.35;11.90;;;;;;;7.74;72.80;99624.94;2618724;54;20061;-69
2021/11/08 10:48:03;;;;;;;17.85;11.30;;;;;;;8.03;72.45;99628.06;2618535;54;20039;-69
2021/11/08 10:50:41;;;;;;;21.48;13.88;;;;;;;8.06;72.06;99625.13;2618335;54;20042;-71
2021/11/08 10:53:10;;;;;;;27.00;13.88;;;;;;;7.96;71.38;99629.69;2618823;39;20443;-72
2021/11/08 10:55:40;;;;;;;21.73;12.07;;;;;;;7.95;72.56;99633.28;2618244;39;20426;-69
2021/11/08 10:58:11;;;;;;;19.73;11.68;;;;;;;7.95;72.56;99628.03;2618233;54;20030;-70
2021/11/08 11:00:49;;;;;;;14.90;10.25;;;;;;;7.93;72.39;99630.81;2618343;54;20082;-71
2021/11/08 11:03:23;;;;;;;16.80;10.07;;;;;;;8.01;72.36;99627.41;2622166;54;20135;-70
2021/11/08 11:06:02;;;;;;;20.20;11.02;;;;;;;8.13;72.71;99617.44;2620995;54;20034;-70
2021/11/08 11:08:33;;;;;;;30.08;11.85;;;;;;;8.24;72.39;99617.16;2619250;54;20038;-70
2021/11/08 11:11:06;;;;;;;24.05;13.15;;;;;;;8.37;72.36;99620.22;2619298;54;20041;-70
2021/11/08 11:13:38;;;;;;;17.80;11.30;;;;;;;8.59;72.25;99613.53;2619709;54;20026;-70
2021/11/08 11:16:08;;;;;;;16.73;11.05;;;;;;;8.62;71.69;99605.31;2619132;39;20425;-70
2021/11/08 11:18:40;;;;;;;21.33;10.60;;;;;;;8.70;71.91;99603.72;2619384;54;20085;-70
2021/11/08 11:21:20;;;;;;;19.27;11.38;;;;;;;8.73;71.17;99606.81;2618917;54;20042;-70
2021/11/08 11:23:54;;;;;;;17.73;11.32;;;;;;;8.76;71.35;99601.22;2619005;39;20422;-69
2021/11/08 11:26:29;;;;;;;17.60;9.73;;;;;;;8.78;70.99;99601.91;2618784;54;20026;-71
2021/11/08 11:29:00;;;;;;;16.60;9.10;;;;;;;8.78;71.12;99590.53;2619083;54;20038;-70
2021/11/08 11:31:36;;;;;;;21.67;9.65;;;;;;;8.80;71.41;99593.84;2618245;46;20042;-70
2021/11/08 11:34:17;;;;;;;18.42;11.02;;;;;;;8.82;70.66;99587.41;2619467;39;20445;-69
2021/11/08 11:36:47;;;;;;;14.63;10.48;;;;;;;8.73;70.68;99583.09;2618082;47;20030;-69
2021/11/08 11:39:20;;;;;;;15.90;9.77;;;;;;;8.71;71.00;99579.81;2619471;54;20042;-70
2021/11/08 11:41:51;;;;;;;22.25;11.45;;;;;;;8.71;71.10;99584.25;2618589;54;20046;-70
2021/11/08 11:44:24;;;;;;;17.02;9.52;;;;;;;8.83;71.49;99586.44;2618888;54;20031;-70
2021/11/08 11:46:56;;;;;;;14.23;8.80;;;;;;;8.87;70.78;99587.75;2618826;54;20042;-69
2021/11/08 11:49:29;;;;;;;22.10;11.20;;;;;;;8.81;70.82;99590.19;2618215;47;20033;-70
2021/11/08 11:52:01;;;;;;;18.63;11.43;;;;;;;8.81;71.38;99583.13;2618559;54;20133;-69
2021/11/08 11:54:33;;;;;;;26.15;15.93;;;;;;;8.82;70.97;99578.69;2618812;54;20026;-70
2021/11/08 11:57:04;;;;;;;18.13;11.75;;;;;;;8.85;71.21;99575.72;2618925;54;20038;-70
2021/11/08 11:59:42;;;;;;;24.15;14.20;;;;;;;8.80;71.69;99580.66;2618819;54;20026;-70
2021/11/08 12:02:12;;;;;;;21.63;11.85;;;;;;;8.87;71.62;99582.47;2618651;54;20030;-69
2021/11/08 12:04:44;;;;;;;20.75;11.38;;;;;;;8.87;71.35;99590.38;2618152;54;20023;-71
2021/11/08 12:07:15;;;;;;;20.48;11.75;;;;;;;8.96;71.49;99585.94;2618044;54;20033;-69
2021/11/08 12:09:45;;;;;;;20.65;11.45;;;;;;;9.04;71.53;99582.50;2619123;54;20057;-72
2021/11/08 12:12:24;;;;;;;22.88;11.80;;;;;;;9.08;71.04;99582.00;2618734;54;20081;-69
2021/11/08 12:15:06;;;;;;;21.75;11.00;;;;;;;9.20;71.14;99584.31;2618873;54;20042;-69
2021/11/08 12:17:40;;;;;;;18.08;10.63;;;;;;;9.27;70.93;99583.50;2618766;54;20031;-70
2021/11/08 12:20:16;;;;;;;18.67;10.73;;;;;;;9.23;70.54;99579.53;2619163;54;20018;-69
2021/11/08 12:22:46;;;;;;;17.63;10.43;;;;;;;9.25;70.58;99571.47;2618579;54;20038;-69
2021/11/08 12:25:18;;;;;;;23.83;10.32;;;;;;;9.25;70.52;99571.47;2618682;54;20085;-69
2021/11/08 12:27:50;;;;;;;19.65;10.38;;;;;;;9.36;70.53;99564.03;2623563;54;20026;-72
2021/11/08 12:30:23;;;;;;;19.45;9.35;;;;;;;9.31;69.82;99571.63;2625278;47;20030;-70
2021/11/08 12:32:55;;;;;;;15.57;8.57;;;;;;;9.31;70.20;99570.81;2625396;54;20030;-69
2021/11/08 12:35:33;;;;;;;19.45;9.45;;;;;;;9.37;70.13;99560.41;2623938;47;20027;-70
2021/11/08 12:38:05;;;;;;;23.40;8.90;;;;;;;9.43;69.54;99565.03;2624259;47;20018;-70
2021/11/08 12:40:35;;;;;;;17.63;8.60;;;;;;;9.48;69.52;99561.06;2625096;54;20030;-69
2021/11/08 12:43:04;;;;;;;17.02;8.80;;;;;;;9.49;69.04;99552.16;2625087;54;20031;-69
2021/11/08 12:45:40;;;;;;;16.05;7.63;;;;;;;9.43;68.96;99549.19;2625083;54;20045;-70
2021/11/08 12:48:13;;;;;;;18.80;7.95;;;;;;;9.48;69.23;99546.06;2623056;54;20034;-70
2021/11/08 12:50:48;;;;;;;15.07;7.95;;;;;;;9.58;69.15;99548.50;2620556;39;20230;-70
2021/11/08 12:53:24;;;;;;;15.73;7.10;;;;;;;9.60;69.10;99542.06;2620171;54;20026;-70
2021/11/08 12:55:56;;;;;;;16.00;7.72;;;;;;;9.60;69.15;99536.78;2619519;54;20069;-70
2021/11/08 12:58:35;;;;;;;17.25;6.97;;;;;;;9.67;68.66;99534.28;2618853;54;20030;-70
2021/11/08 13:01:07;;;;;;;17.90;7.90;;;;;;;9.68;69.01;99538.59;2618987;54;20019;-70
2021/11/08 13:03:40;;;;;;;15.35;8.05;;;;;;;9.71;69.07;99532.94;2619185;54;20114;-70
2021/11/08 13:06:25;;;;;;;17.83;8.13;;;;;;;9.78;68.96;99531.28;2619130;54;20037;-70
2021/11/08 13:09:08;;;;;;;16.30;8.10;;;;;;;9.82;69.30;99537.88;2619020;54;20568;-70
2021/11/08 13:11:49;;;;;;;16.20;8.13;;;;;;;9.90;69.00;99531.75;2618470;54;20039;-70
2021/11/08 13:14:34;;;;;;;13.07;6.80;;;;;;;9.99;68.79;99540.47;2618182;47;20033;-70
2021/11/08 13:17:10;;;;;;;16.75;7.28;;;;;;;10.08;68.96;99539.44;2618899;54;20030;-69
2021/11/08 13:19:50;;;;;;;17.47;6.77;;;;;;;10.18;68.26;99546.16;2618593;54;20542;-69
2021/11/08 13:22:41;;;;;;;13.13;6.72;;;;;;;10.26;68.09;99532.13;2618541;54;20275;-70
2021/11/08 13:25:13;;;;;;;18.60;6.45;;;;;;;10.44;67.79;99531.88;2620617;54;20069;-70
2021/11/08 13:27:59;;;;;;;13.95;6.70;;;;;;;10.51;67.81;99532.81;2622215;54;20038;-71
2021/11/08 13:30:33;;;;;;;;;;;;;;;10.46;67.02;99529.06;2619005;54;20038;-71
2021/11/08 13:33:04;;;;;;;13.70;6.10;;;;;;;10.42;67.27;99533.88;2618903;54;19953;-71
2021/11/08 13:35:35;;;;;;;12.80;5.15;;;;;;;10.45;67.19;99533.53;2620391;54;20577;-70
2021/11/08 13:38:14;;;;;;;20.45;6.68;;;;;;;10.52;67.25;99529.16;2620160;54;20034;-70
2021/11/08 13:40:45;;;;;;;12.23;5.85;;;;;;;10.52;67.22;99531.81;2618801;46;20037;-71
2021/11/08 13:43:20;;;;;;;11.07;5.57;;;;;;;10.43;67.37;99537.34;2617506;54;20034;-70
2021/11/08 13:45:59;;;;;;;18.98;6.18;;;;;;;10.34;67.16;99542.66;2618629;54;20042;-73
2021/11/08 13:48:32;;;;;;;13.30;5.07;;;;;;;10.24;67.51;99546.47;2620447;47;20029;-72
2021/11/08 13:51:04;;;;;;;17.52;7.18;;;;;;;10.15;67.30;99543.88;2620992;54;20074;-72
2021/11/08 13:53:39;;;;;;;14.67;6.73;;;;;;;10.06;67.79;99550.19;2621460;54;20042;-71
2021/11/08 13:56:11;;;;;;;13.82;6.38;;;;;;;10.05;67.57;99558.28;2621568;46;20086;-72
2021/11/08 13:58:50;;;;;;;15.38;7.25;;;;;;;9.97;67.74;99553.03;2623807;47;20556;-72
2021/11/08 14:01:22;;;;;;;15.25;7.13;;;;;;;9.95;68.11;99555.81;2623021;47;20081;-70
2021/11/08 14:03:54;;;;;;;15.80;7.43;;;;;;;9.93;67.92;99553.38;2621683;47;20558;-70
2021/11/08 14:06:36;;;;;;;15.65;7.97;;;;;;;9.84;68.23;99556.22;2622302;54;20059;-70
2021/11/08 14:09:13;;;;;;;13.73;6.80;;;;;;;9.80;68.38;99544.34;2621126;47;20580;-69
2021/11/08 14:11:45;;;;;;;14.25;5.15;;;;;;;9.76;68.82;99548.31;2623190;54;20037;-70
2021/11/08 14:14:18;;;;;;;15.23;6.53;;;;;;;9.66;68.48;99545.84;2623037;54;20030;-71
2021/11/08 14:16:51;;;;;;;14.52;5.57;;;;;;;9.58;68.88;99544.03;2623362;54;20033;-71
2021/11/08 14:19:22;;;;;;;13.43;5.85;;;;;;;9.55;69.05;99547.03;2624472;54;20069;-70
2021/11/08 14:21:54;;;;;;;17.02;6.78;;;;;;;9.50;69.34;99541.41;2623620;54;20038;-70
2021/11/08 14:24:32;;;;;;;19.02;7.07;;;;;;;9.43;69.06;99546.56;2621130;51;20166;-71
2021/11/08 14:27:06;;;;;;;11.02;5.70;;;;;;;9.37;69.42;99549.84;2620404;47;20033;-69
2021/11/08 14:29:37;;;;;;;17.15;7.03;;;;;;;9.36;69.65;99550.03;2619790;47;20031;-70
2021/11/08 14:32:12;;;;;;;16.73;7.38;;;;;;;9.27;69.49;99559.75;2618503;47;20031;-70
2021/11/08 14:34:54;;;;;;;19.17;7.43;;;;;;;9.23;69.64;99565.53;2619668;54;20033;-70
2021/11/08 14:37:27;;;;;;;18.17;8.52;;;;;;;9.17;69.92;99564.38;2620942;54;20038;-69
2021/11/08 14:40:14;;;;;;;26.33;8.18;;;;;;;9.12;69.74;99558.75;2622195;54;20131;-71
2021/11/08 14:42:48;;;;;;;21.52;8.43;;;;;;;9.06;69.86;99565.53;2621826;54;20018;-72
2021/11/08 14:45:23;;;;;;;18.77;8.50;;;;;;;9.00;70.33;99568.81;2623512;54;20081;-70
2021/11/08 14:47:59;;;;;;;20.77;8.52;;;;;;;8.94;70.63;99574.75;2622280;54;20069;-70
2021/11/08 14:50:34;;;;;;;16.92;8.65;;;;;;;8.87;70.88;99571.94;2622315;54;20031;-69
2021/11/08 14:53:11;;;;;;;18.25;7.57;;;;;;;8.85;71.16;99578.34;2622276;47;20567;-70
2021/11/08 14:55:44;;;;;;;17.55;8.23;;;;;;;8.83;71.03;99578.50;2622132;47;20026;-70
2021/11/08 14:58:17;;;;;;;27.40;10.02;;;;;;;8.79;71.22;99576.38;2624700;47;20690;-69
2021/11/08 15:00:50;;;;;;;19.95;9.43;;;;;;;8.75;71.27;99578.50;2622336;47;20033;-69
2021/11/08 15:03:24;;;;;;;27.92;10.27;;;;;;;8.76;71.95;99576.69;2620501;47;20070;-70
2021/11/08 15:05:54;;;;;;;18.90;9.95;;;;;;;8.73;71.88;99572.56;2625335;46;20161;-69